createdAt,value
2023-04-01T00:02:02.936Z,12.46
2023-04-01T00:07:05.998Z,12.39
2023-04-01T00:12:06.352Z,11.52
2023-04-01T00:17:05.023Z,11.51
2023-04-01T00:22:03.648Z,11.69
2023-04-01T00:27:03.064Z,11.53
2023-04-01T00:32:02.258Z,11.58
2023-04-01T00:37:01.603Z,11.27
2023-04-01T00:42:00.138Z,11.29
2023-04-01T00:46:58.823Z,11.06
2023-04-01T00:51:58.821Z,10.80
2023-04-01T00:57:03.016Z,10.87
2023-04-01T01:02:07.438Z,11.17
2023-04-01T01:07:42.942Z,11.24
2023-04-01T01:12:50.434Z,10.33
2023-04-01T01:18:20.420Z,10.71
2023-04-01T01:23:44.787Z,10.59
2023-04-01T01:29:01.507Z,10.32
2023-04-01T01:34:23.278Z,10.10
2023-04-01T01:39:27.667Z,9.71
2023-04-01T01:44:30.971Z,10.07
2023-04-01T01:49:31.531Z,9.78
2023-04-01T01:54:29.835Z,9.32
2023-04-01T01:59:29.418Z,9.76
2023-04-01T02:04:29.321Z,10.08
2023-04-01T02:09:27.594Z,10.28
2023-04-01T02:14:31.064Z,10.11
2023-04-01T02:19:41.923Z,9.85
2023-04-01T02:24:41.656Z,9.98
2023-04-01T02:29:40.010Z,9.17
2023-04-01T02:34:42.335Z,9.13
2023-04-01T02:39:42.031Z,9.52
2023-04-01T02:44:40.841Z,9.76
2023-04-01T02:49:39.166Z,9.40
2023-04-01T02:54:38.998Z,9.72
2023-04-01T02:59:37.617Z,9.33
2023-04-01T03:04:36.356Z,8.70
2023-04-01T03:09:34.467Z,9.13
2023-04-01T03:14:33.177Z,9.35
2023-04-01T03:19:31.528Z,9.57
2023-04-01T03:24:31.141Z,9.51
2023-04-01T03:29:30.171Z,9.16
2023-04-01T03:34:31.736Z,9.28
2023-04-01T03:39:30.817Z,9.68
2023-04-01T03:44:32.300Z,9.43
2023-04-01T03:49:30.947Z,9.56
2023-04-01T03:54:30.646Z,9.78
2023-04-01T03:59:29.011Z,10.00
2023-04-01T04:10:57.456Z,9.99
2023-04-01T04:15:57.478Z,9.93
2023-04-01T04:21:24.851Z,10.37
2023-04-01T04:26:23.279Z,9.76
2023-04-01T04:31:30.802Z,10.37
2023-04-01T04:36:30.908Z,10.13
2023-04-01T04:41:37.142Z,10.29
2023-04-01T04:46:37.764Z,10.87
2023-04-01T04:51:51.913Z,10.91
2023-04-01T04:56:57.608Z,11.40
2023-04-01T05:01:57.948Z,11.36
2023-04-01T05:06:59.913Z,11.98
2023-04-01T05:11:58.408Z,11.90
2023-04-01T05:17:04.512Z,12.37
2023-04-01T05:22:06.051Z,12.39
2023-04-01T05:27:07.050Z,12.62
2023-04-01T05:32:11.151Z,12.79
2023-04-01T05:37:09.947Z,12.76
2023-04-01T05:42:11.075Z,12.98
2023-04-01T05:47:14.719Z,13.25
2023-04-01T05:52:12.957Z,13.33
2023-04-01T05:57:18.990Z,13.44
2023-04-01T06:02:19.763Z,13.69
2023-04-01T06:07:20.553Z,13.63
2023-04-01T06:12:31.592Z,14.07
2023-04-01T06:17:51.110Z,14.54
2023-04-01T06:23:20.696Z,14.49
2023-04-01T06:28:57.281Z,14.68
2023-04-01T06:34:34.184Z,14.56
2023-04-01T06:39:44.197Z,14.43
2023-04-01T06:44:52.134Z,14.40
2023-04-01T06:50:42.376Z,14.32
2023-04-01T07:02:11.701Z,14.28
2023-04-01T07:07:38.150Z,13.97
2023-04-01T07:12:51.984Z,14.06
2023-04-01T07:18:30.686Z,14.18
2023-04-01T07:23:46.758Z,14.07
2023-04-01T07:29:16.598Z,14.21
2023-04-01T07:34:56.433Z,14.34
2023-04-01T07:40:23.782Z,14.98
2023-04-01T07:45:45.117Z,15.11
2023-04-01T07:51:08.488Z,14.96
2023-04-01T07:56:12.819Z,15.32
2023-04-01T08:01:26.527Z,15.75
2023-04-01T08:06:39.446Z,15.89
2023-04-01T08:11:46.903Z,16.11
2023-04-01T08:17:15.565Z,15.33
2023-04-01T08:29:13.260Z,15.93
2023-04-01T08:34:25.716Z,16.10
2023-04-01T08:40:09.243Z,16.37
2023-04-01T08:45:59.701Z,16.57
2023-04-01T08:51:06.404Z,16.84
2023-04-01T08:56:24.651Z,16.68
2023-04-01T09:01:44.623Z,17.08
2023-04-01T09:07:33.543Z,16.83
2023-04-01T09:12:54.623Z,16.85
2023-04-01T09:18:06.495Z,17.07
2023-04-01T09:23:31.263Z,17.08
2023-04-01T09:28:52.873Z,17.28
2023-04-01T09:34:12.288Z,17.24
2023-04-01T09:39:42.235Z,17.20
2023-04-01T09:45:06.392Z,17.15
2023-04-01T09:51:00.369Z,17.80
2023-04-01T09:56:42.313Z,18.27
2023-04-01T10:01:53.899Z,18.32
2023-04-01T10:07:05.372Z,17.87
2023-04-01T10:12:27.108Z,17.64
2023-04-01T10:17:59.955Z,17.43
2023-04-01T10:23:30.812Z,17.79
2023-04-01T10:28:54.492Z,18.40
2023-04-01T10:34:42.931Z,17.93
2023-04-01T10:40:04.157Z,18.07
2023-04-01T10:45:33.294Z,17.72
2023-04-01T10:50:44.586Z,17.03
2023-04-01T10:56:24.371Z,17.10
2023-04-01T11:02:11.584Z,17.19
2023-04-01T11:08:02.751Z,16.82
2023-04-01T11:13:26.188Z,17.09
2023-04-01T11:18:38.412Z,16.78
2023-04-01T11:23:51.980Z,16.50
2023-04-01T11:29:29.378Z,17.14
2023-04-01T11:34:52.084Z,16.96
2023-04-01T11:40:13.893Z,16.94
2023-04-01T11:45:48.950Z,16.67
2023-04-01T11:51:22.980Z,17.47
2023-04-01T11:56:52.184Z,18.11
2023-04-01T12:02:02.748Z,18.21
2023-04-01T12:07:49.070Z,17.72
2023-04-01T12:13:02.095Z,17.55
2023-04-01T12:18:16.153Z,18.05
2023-04-01T12:23:57.102Z,18.16
2023-04-01T12:29:10.810Z,17.76
2023-04-01T12:35:02.057Z,17.13
2023-04-01T12:40:07.624Z,18.40
2023-04-01T12:45:38.358Z,17.23
2023-04-01T12:51:06.123Z,16.94
2023-04-01T12:56:05.425Z,17.23
2023-04-01T13:01:31.103Z,17.31
2023-04-01T13:06:35.536Z,17.33
2023-04-01T13:11:58.721Z,17.17
2023-04-01T13:17:10.414Z,16.96
2023-04-01T13:22:31.456Z,16.83
2023-04-01T13:27:37.964Z,16.97
2023-04-01T13:32:45.286Z,17.35
2023-04-01T13:38:07.472Z,17.29
2023-04-01T13:43:25.035Z,16.94
2023-04-01T13:48:36.475Z,17.11
2023-04-01T13:53:48.067Z,16.71
2023-04-01T13:59:02.629Z,16.70
2023-04-01T14:04:30.168Z,16.39
2023-04-01T14:09:44.492Z,16.78
2023-04-01T14:15:08.053Z,16.33
2023-04-01T14:20:44.341Z,16.27
2023-04-01T14:26:21.799Z,15.95
2023-04-01T14:31:44.608Z,15.48
2023-04-01T14:37:20.851Z,15.50
2023-04-01T14:42:53.675Z,15.53
2023-04-01T14:48:08.062Z,15.79
2023-04-01T14:53:08.829Z,15.89
2023-04-01T14:58:10.084Z,15.79
2023-04-01T15:03:30.596Z,15.92
2023-04-01T15:08:34.515Z,15.35
2023-04-01T15:13:45.848Z,15.54
2023-04-01T15:19:25.271Z,15.31
2023-04-01T15:24:27.326Z,15.34
2023-04-01T15:29:50.130Z,15.39
2023-04-01T15:35:02.521Z,15.27
2023-04-01T15:40:31.082Z,15.63
2023-04-01T15:46:12.700Z,15.32
2023-04-01T15:51:26.134Z,14.96
2023-04-01T15:56:58.487Z,14.60
2023-04-01T16:02:14.980Z,14.72
2023-04-01T16:07:43.768Z,14.45
2023-04-01T16:13:26.238Z,14.39
2023-04-01T16:18:34.223Z,14.74
2023-04-01T16:23:44.852Z,14.68
2023-04-01T16:29:16.544Z,15.04
2023-04-01T16:34:39.825Z,14.48
2023-04-01T16:39:42.028Z,14.29
2023-04-01T16:45:00.196Z,13.71
2023-04-01T16:50:21.386Z,13.65
2023-04-01T16:55:21.948Z,13.56
2023-04-01T17:00:35.383Z,13.69
2023-04-01T17:05:55.200Z,13.75
2023-04-01T17:11:16.442Z,13.89
2023-04-01T17:16:35.977Z,13.65
2023-04-01T17:22:02.737Z,13.66
2023-04-01T17:27:15.336Z,13.59
2023-04-01T17:32:28.645Z,13.17
2023-04-01T17:37:43.366Z,13.22
2023-04-01T17:42:55.205Z,13.75
2023-04-01T17:48:21.511Z,13.36
2023-04-01T17:53:31.237Z,13.30
2023-04-01T17:58:51.917Z,12.86
2023-04-01T18:04:29.411Z,13.18
2023-04-01T18:09:40.874Z,13.66
2023-04-01T18:15:17.531Z,13.71
2023-04-01T18:20:57.753Z,13.82
2023-04-01T18:26:05.810Z,13.44
2023-04-01T18:31:09.939Z,13.77
2023-04-01T18:36:22.908Z,13.33
2023-04-01T18:41:30.717Z,13.33
2023-04-01T18:46:44.144Z,12.83
2023-04-01T18:51:56.981Z,12.63
2023-04-01T18:57:18.880Z,12.78
2023-04-01T19:02:32.506Z,12.97
2023-04-01T19:07:54.406Z,12.66
2023-04-01T19:13:16.129Z,12.98
2023-04-01T19:18:38.496Z,13.00
2023-04-01T19:23:52.317Z,12.92
2023-04-01T19:28:58.030Z,12.62
2023-04-01T19:34:11.542Z,12.94
2023-04-01T19:39:38.673Z,12.96
2023-04-01T19:44:52.423Z,12.91
2023-04-01T19:49:53.812Z,12.99
2023-04-01T19:55:24.618Z,12.96
2023-04-01T20:00:51.654Z,12.82
2023-04-01T20:06:20.636Z,12.87
2023-04-01T20:11:45.638Z,12.90
2023-04-01T20:16:56.355Z,12.88
2023-04-01T20:21:59.398Z,12.86
2023-04-01T20:27:16.847Z,12.88
2023-04-01T20:32:42.317Z,12.64
2023-04-01T20:38:08.387Z,12.61
2023-04-01T20:43:27.045Z,12.07
2023-04-01T20:49:21.763Z,12.14
2023-04-01T20:54:39.886Z,12.26
2023-04-01T21:00:18.557Z,12.22
2023-04-01T21:05:52.875Z,11.98
2023-04-01T21:11:40.182Z,12.04
2023-04-01T21:17:11.121Z,11.88
2023-04-01T21:22:40.807Z,12.05
2023-04-01T21:27:54.158Z,11.94
2023-04-01T21:33:11.863Z,11.87
2023-04-01T21:38:17.106Z,11.74
2023-04-01T21:43:27.946Z,11.59
2023-04-01T21:48:39.550Z,11.33
2023-04-01T21:54:06.067Z,11.40
2023-04-01T21:59:26.531Z,11.26
2023-04-01T22:04:49.447Z,11.25
2023-04-01T22:09:58.602Z,11.03
2023-04-01T22:15:06.511Z,11.01
2023-04-01T22:20:25.866Z,11.07
2023-04-01T22:25:35.925Z,11.07
2023-04-01T22:30:55.020Z,10.87
2023-04-01T22:36:09.852Z,10.74
2023-04-01T22:41:48.589Z,10.88
2023-04-01T22:46:48.666Z,10.97
2023-04-01T22:52:03.328Z,10.75
2023-04-01T22:57:41.630Z,10.93
2023-04-01T23:03:04.933Z,10.66
2023-04-01T23:08:25.819Z,10.76
2023-04-01T23:13:29.669Z,10.71
2023-04-01T23:18:53.282Z,10.67
2023-04-01T23:24:30.287Z,10.82
2023-04-01T23:29:29.337Z,10.78
2023-04-01T23:34:34.005Z,10.55
2023-04-01T23:39:34.940Z,10.63
2023-04-01T23:44:34.633Z,10.45
2023-04-01T23:49:39.153Z,10.38
2023-04-01T23:54:55.940Z,10.57
